FIN1520 EFOU-EFHK
Flight info
| Callsign | FIN1520 |
|---|---|
| Flight time | 0h 55m |
| Altitude | FL390 |
| Route | MIKN5B MIKNU Y86 LUSEP LUSE4B |
| Aircraft | A320 |
Departure
| Time | 2026-04-20 16:58 |
|---|---|
| Airport | Oulu Airport (EFOU) |
Arrival
| Time | 2026-04-20 17:53 |
|---|---|
| Airport | Helsinki Vantaa Airport (EFHK) |
| Time | Latitude | Longitude | Altitude | Speed | Heading |
|---|---|---|---|---|---|
| 2026-04-20 16:28 | 64.92845 | 25.37146 | 89 ft | 0 kts | 60° |
| 2026-04-20 16:51 | 64.92841 | 25.37128 | 89 ft | 2 kts | 60° |
| 2026-04-20 16:52 | 64.92833 | 25.37098 | 89 ft | 2 kts | 64° |
| 2026-04-20 16:52 | 64.92831 | 25.37062 | 89 ft | 2 kts | 102° |
| 2026-04-20 16:52 | 64.92834 | 25.37042 | 89 ft | 1 kts | 121° |
| 2026-04-20 16:52 | 64.92838 | 25.37028 | 88 ft | 0 kts | 123° |
| 2026-04-20 16:55 | 64.92837 | 25.37033 | 89 ft | 2 kts | 124° |
| 2026-04-20 16:55 | 64.92821 | 25.37074 | 89 ft | 5 kts | 136° |
| 2026-04-20 16:55 | 64.92788 | 25.37140 | 89 ft | 8 kts | 139° |
| 2026-04-20 16:56 | 64.92721 | 25.37332 | 88 ft | 20 kts | 121° |
| 2026-04-20 16:56 | 64.92648 | 25.37613 | 86 ft | 21 kts | 120° |
| 2026-04-20 16:56 | 64.92595 | 25.37826 | 84 ft | 7 kts | 120° |
| 2026-04-20 16:56 | 64.92554 | 25.37924 | 84 ft | 10 kts | 159° |
| 2026-04-20 16:57 | 64.92491 | 25.37868 | 84 ft | 11 kts | 234° |
| 2026-04-20 16:57 | 64.92453 | 25.37703 | 84 ft | 11 kts | 254° |
| 2026-04-20 16:57 | 64.92466 | 25.37570 | 85 ft | 0 kts | 302° |
| 2026-04-20 16:57 | 64.92501 | 25.37436 | 86 ft | 41 kts | 300° |
| 2026-04-20 16:58 | 64.92794 | 25.36292 | 91 ft | 120 kts | 300° |
| 2026-04-20 16:58 | 64.93318 | 25.34209 | 291 ft | 165 kts | 301° |
| 2026-04-20 16:58 | 64.93752 | 25.31853 | 1221 ft | 159 kts | 277° |
| 2026-04-20 16:58 | 64.93580 | 25.29423 | 2188 ft | 155 kts | 251° |
| 2026-04-20 16:59 | 64.93075 | 25.27225 | 2954 ft | 157 kts | 240° |
| 2026-04-20 16:59 | 64.92571 | 25.24895 | 3500 ft | 171 kts | 250° |
| 2026-04-20 16:59 | 64.91798 | 25.22493 | 3969 ft | 199 kts | 220° |
| 2026-04-20 16:59 | 64.90509 | 25.21105 | 4598 ft | 215 kts | 192° |
| 2026-04-20 17:00 | 64.87514 | 25.22200 | 6158 ft | 229 kts | 166° |
| 2026-04-20 17:00 | 64.85981 | 25.23054 | 7025 ft | 232 kts | 166° |
| 2026-04-20 17:00 | 64.84430 | 25.23912 | 7836 ft | 234 kts | 167° |
| 2026-04-20 17:01 | 64.82816 | 25.24114 | 8520 ft | 244 kts | 185° |
| 2026-04-20 17:01 | 64.81043 | 25.24171 | 9034 ft | 266 kts | 168° |
| 2026-04-20 17:01 | 64.79213 | 25.25342 | 9646 ft | 284 kts | 161° |
| 2026-04-20 17:01 | 64.77287 | 25.26762 | 10254 ft | 301 kts | 162° |
| 2026-04-20 17:02 | 64.75253 | 25.28113 | 11014 ft | 312 kts | 164° |
| 2026-04-20 17:02 | 64.73142 | 25.29360 | 11842 ft | 320 kts | 166° |
| 2026-04-20 17:02 | 64.70980 | 25.30535 | 12724 ft | 324 kts | 166° |
| 2026-04-20 17:02 | 64.68786 | 25.31671 | 13567 ft | 329 kts | 167° |
| 2026-04-20 17:03 | 64.66544 | 25.32802 | 14405 ft | 333 kts | 167° |
| 2026-04-20 17:03 | 64.64288 | 25.33930 | 15210 ft | 338 kts | 167° |
| 2026-04-20 17:03 | 64.62001 | 25.35064 | 16007 ft | 341 kts | 167° |
| 2026-04-20 17:03 | 64.59687 | 25.36210 | 16806 ft | 346 kts | 167° |
| 2026-04-20 17:04 | 64.57341 | 25.37369 | 17561 ft | 350 kts | 167° |
| 2026-04-20 17:04 | 64.54967 | 25.38541 | 18330 ft | 355 kts | 167° |
| 2026-04-20 17:04 | 64.52562 | 25.39725 | 19038 ft | 359 kts | 167° |
| 2026-04-20 17:04 | 64.50110 | 25.40928 | 19740 ft | 363 kts | 167° |
| 2026-04-20 17:05 | 64.47644 | 25.42136 | 20414 ft | 368 kts | 167° |
| 2026-04-20 17:05 | 64.45128 | 25.43157 | 21072 ft | 373 kts | 172° |
| 2026-04-20 17:05 | 64.42540 | 25.43620 | 21744 ft | 378 kts | 178° |
| 2026-04-20 17:05 | 64.39921 | 25.43570 | 22395 ft | 382 kts | 181° |
| 2026-04-20 17:06 | 64.37270 | 25.43406 | 23030 ft | 387 kts | 181° |
| 2026-04-20 17:06 | 64.34584 | 25.43225 | 23658 ft | 392 kts | 181° |
| 2026-04-20 17:06 | 64.31848 | 25.43052 | 24285 ft | 396 kts | 181° |
| 2026-04-20 17:06 | 64.29104 | 25.42887 | 24903 ft | 400 kts | 181° |
| 2026-04-20 17:07 | 64.26330 | 25.42727 | 25525 ft | 404 kts | 181° |
| 2026-04-20 17:07 | 64.23531 | 25.42573 | 26143 ft | 407 kts | 181° |
| 2026-04-20 17:07 | 64.20715 | 25.42417 | 26756 ft | 410 kts | 181° |
| 2026-04-20 17:07 | 64.17872 | 25.42261 | 27351 ft | 413 kts | 181° |
| 2026-04-20 17:08 | 64.15009 | 25.42109 | 27933 ft | 416 kts | 181° |
| 2026-04-20 17:08 | 64.12103 | 25.41953 | 28482 ft | 419 kts | 181° |
| 2026-04-20 17:08 | 64.09199 | 25.41797 | 29015 ft | 421 kts | 180° |
| 2026-04-20 17:08 | 64.06283 | 25.41644 | 29516 ft | 424 kts | 180° |
| 2026-04-20 17:09 | 64.03348 | 25.41488 | 30002 ft | 426 kts | 180° |
| 2026-04-20 17:09 | 64.00398 | 25.41332 | 30471 ft | 428 kts | 180° |
| 2026-04-20 17:09 | 63.97434 | 25.41174 | 30916 ft | 431 kts | 180° |
| 2026-04-20 17:09 | 63.94447 | 25.41016 | 31328 ft | 433 kts | 180° |
| 2026-04-20 17:10 | 63.91421 | 25.40859 | 31719 ft | 436 kts | 180° |
| 2026-04-20 17:10 | 63.88403 | 25.40699 | 32102 ft | 438 kts | 180° |
| 2026-04-20 17:10 | 63.85371 | 25.40539 | 32469 ft | 439 kts | 180° |
| 2026-04-20 17:10 | 63.82329 | 25.40382 | 32830 ft | 441 kts | 180° |
| 2026-04-20 17:11 | 63.79269 | 25.40228 | 33189 ft | 443 kts | 180° |
| 2026-04-20 17:11 | 63.76188 | 25.40074 | 33527 ft | 444 kts | 180° |
| 2026-04-20 17:11 | 63.73118 | 25.39920 | 33846 ft | 446 kts | 180° |
| 2026-04-20 17:11 | 63.70003 | 25.39760 | 34165 ft | 448 kts | 180° |
| 2026-04-20 17:12 | 63.66912 | 25.39593 | 34553 ft | 447 kts | 180° |
| 2026-04-20 17:12 | 63.63827 | 25.39427 | 35000 ft | 445 kts | 180° |
| 2026-04-20 17:12 | 63.60763 | 25.39263 | 35402 ft | 442 kts | 180° |
| 2026-04-20 17:12 | 63.57711 | 25.39101 | 35695 ft | 441 kts | 180° |
| 2026-04-20 17:13 | 63.54666 | 25.38941 | 35956 ft | 440 kts | 179° |
| 2026-04-20 17:13 | 63.51626 | 25.38783 | 36191 ft | 439 kts | 179° |
| 2026-04-20 17:13 | 63.48566 | 25.38627 | 36376 ft | 439 kts | 179° |
| 2026-04-20 17:13 | 63.45534 | 25.38475 | 36547 ft | 440 kts | 179° |
| 2026-04-20 17:14 | 63.42488 | 25.38322 | 36719 ft | 440 kts | 179° |
| 2026-04-20 17:14 | 63.39443 | 25.38166 | 36961 ft | 440 kts | 179° |
| 2026-04-20 17:14 | 63.36404 | 25.38010 | 37212 ft | 440 kts | 179° |
| 2026-04-20 17:14 | 63.33361 | 25.37854 | 37456 ft | 440 kts | 179° |
| 2026-04-20 17:15 | 63.30316 | 25.37697 | 37687 ft | 440 kts | 179° |
| 2026-04-20 17:15 | 63.27243 | 25.37538 | 37899 ft | 441 kts | 179° |
| 2026-04-20 17:15 | 63.24188 | 25.37382 | 38090 ft | 442 kts | 179° |
| 2026-04-20 17:15 | 63.21132 | 25.37226 | 38274 ft | 443 kts | 179° |
| 2026-04-20 17:16 | 63.18068 | 25.37070 | 38452 ft | 444 kts | 179° |
| 2026-04-20 17:16 | 63.14994 | 25.36915 | 38632 ft | 445 kts | 179° |
| 2026-04-20 17:16 | 63.11891 | 25.36757 | 38810 ft | 446 kts | 179° |
| 2026-04-20 17:16 | 63.08811 | 25.36602 | 38979 ft | 447 kts | 179° |
| 2026-04-20 17:17 | 63.05698 | 25.36445 | 39148 ft | 448 kts | 179° |
| 2026-04-20 17:17 | 63.02602 | 25.36291 | 39299 ft | 449 kts | 179° |
| 2026-04-20 17:17 | 62.99494 | 25.36135 | 39321 ft | 450 kts | 179° |
| 2026-04-20 17:18 | 62.93288 | 25.35824 | 39328 ft | 450 kts | 179° |
| 2026-04-20 17:18 | 62.87067 | 25.35516 | 39327 ft | 450 kts | 179° |
| 2026-04-20 17:19 | 62.80799 | 25.35206 | 39327 ft | 450 kts | 179° |
| 2026-04-20 17:19 | 62.74553 | 25.34893 | 39332 ft | 450 kts | 179° |
| 2026-04-20 17:20 | 62.68322 | 25.34580 | 39078 ft | 455 kts | 179° |
| 2026-04-20 17:20 | 62.65161 | 25.34425 | 38426 ft | 462 kts | 179° |
| 2026-04-20 17:20 | 62.61942 | 25.34267 | 37733 ft | 464 kts | 178° |
| 2026-04-20 17:20 | 62.58742 | 25.34106 | 37147 ft | 464 kts | 178° |
| 2026-04-20 17:21 | 62.55545 | 25.33948 | 36630 ft | 463 kts | 178° |
| 2026-04-20 17:21 | 62.52351 | 25.33788 | 36241 ft | 462 kts | 178° |
| 2026-04-20 17:21 | 62.49163 | 25.33629 | 35787 ft | 462 kts | 178° |
| 2026-04-20 17:21 | 62.45978 | 25.33472 | 35288 ft | 462 kts | 177° |
| 2026-04-20 17:22 | 62.42792 | 25.33319 | 34572 ft | 462 kts | 177° |
| 2026-04-20 17:22 | 62.39574 | 25.33167 | 33804 ft | 464 kts | 177° |
| 2026-04-20 17:22 | 62.36375 | 25.33018 | 33135 ft | 462 kts | 177° |
| 2026-04-20 17:22 | 62.33200 | 25.32864 | 32606 ft | 458 kts | 177° |
| 2026-04-20 17:23 | 62.30052 | 25.32710 | 32070 ft | 454 kts | 177° |
| 2026-04-20 17:23 | 62.26929 | 25.32561 | 31460 ft | 453 kts | 177° |
| 2026-04-20 17:23 | 62.23814 | 25.32413 | 30862 ft | 450 kts | 176° |
| 2026-04-20 17:23 | 62.20719 | 25.32264 | 30345 ft | 446 kts | 176° |
| 2026-04-20 17:24 | 62.17636 | 25.32120 | 29862 ft | 441 kts | 176° |
| 2026-04-20 17:24 | 62.14611 | 25.31980 | 29401 ft | 436 kts | 176° |
| 2026-04-20 17:24 | 62.11617 | 25.31839 | 28947 ft | 431 kts | 176° |
| 2026-04-20 17:24 | 62.08655 | 25.31699 | 28500 ft | 427 kts | 176° |
| 2026-04-20 17:25 | 62.05725 | 25.31559 | 28056 ft | 422 kts | 176° |
| 2026-04-20 17:25 | 62.02823 | 25.31418 | 27612 ft | 419 kts | 176° |
| 2026-04-20 17:25 | 61.99944 | 25.31282 | 27169 ft | 415 kts | 176° |
| 2026-04-20 17:25 | 61.97069 | 25.31143 | 26729 ft | 412 kts | 176° |
| 2026-04-20 17:26 | 61.94234 | 25.31007 | 26290 ft | 408 kts | 176° |
| 2026-04-20 17:26 | 61.91422 | 25.30873 | 25848 ft | 405 kts | 175° |
| 2026-04-20 17:26 | 61.88621 | 25.30742 | 25403 ft | 402 kts | 175° |
| 2026-04-20 17:26 | 61.85848 | 25.30613 | 24969 ft | 399 kts | 175° |
| 2026-04-20 17:27 | 61.83100 | 25.30488 | 24539 ft | 396 kts | 175° |
| 2026-04-20 17:27 | 61.80368 | 25.30362 | 24107 ft | 392 kts | 175° |
| 2026-04-20 17:27 | 61.77642 | 25.30237 | 23312 ft | 394 kts | 176° |
| 2026-04-20 17:27 | 61.74894 | 25.30121 | 22215 ft | 402 kts | 176° |
| 2026-04-20 17:28 | 61.72102 | 25.30000 | 21043 ft | 410 kts | 176° |
| 2026-04-20 17:28 | 61.69255 | 25.29871 | 20092 ft | 413 kts | 176° |
| 2026-04-20 17:28 | 61.66439 | 25.29734 | 19770 ft | 402 kts | 177° |
| 2026-04-20 17:28 | 61.63690 | 25.29597 | 19388 ft | 394 kts | 176° |
| 2026-04-20 17:29 | 61.60983 | 25.29468 | 18933 ft | 390 kts | 177° |
| 2026-04-20 17:29 | 61.58283 | 25.29341 | 18420 ft | 386 kts | 176° |
| 2026-04-20 17:29 | 61.55622 | 25.29215 | 17913 ft | 384 kts | 176° |
| 2026-04-20 17:29 | 61.52989 | 25.29092 | 17514 ft | 377 kts | 177° |
| 2026-04-20 17:30 | 61.50397 | 25.28969 | 17133 ft | 371 kts | 177° |
| 2026-04-20 17:30 | 61.47855 | 25.28850 | 16750 ft | 365 kts | 177° |
| 2026-04-20 17:30 | 61.45349 | 25.28734 | 16369 ft | 360 kts | 177° |
| 2026-04-20 17:30 | 61.42879 | 25.28620 | 15987 ft | 355 kts | 177° |
| 2026-04-20 17:31 | 61.40427 | 25.28506 | 15602 ft | 350 kts | 177° |
| 2026-04-20 17:31 | 61.38019 | 25.28396 | 15254 ft | 345 kts | 177° |
| 2026-04-20 17:31 | 61.35664 | 25.28286 | 14956 ft | 338 kts | 177° |
| 2026-04-20 17:31 | 61.33338 | 25.28179 | 14576 ft | 334 kts | 177° |
| 2026-04-20 17:32 | 61.31039 | 25.28074 | 14198 ft | 331 kts | 177° |
| 2026-04-20 17:32 | 61.28760 | 25.27971 | 13815 ft | 328 kts | 177° |
| 2026-04-20 17:32 | 61.26503 | 25.27868 | 13433 ft | 326 kts | 177° |
| 2026-04-20 17:32 | 61.24242 | 25.27766 | 13051 ft | 324 kts | 177° |
| 2026-04-20 17:33 | 61.22014 | 25.27664 | 12669 ft | 322 kts | 177° |
| 2026-04-20 17:33 | 61.19796 | 25.27564 | 12292 ft | 320 kts | 177° |
| 2026-04-20 17:33 | 61.17591 | 25.27463 | 11912 ft | 318 kts | 177° |
| 2026-04-20 17:33 | 61.15399 | 25.27365 | 11530 ft | 315 kts | 177° |
| 2026-04-20 17:34 | 61.13231 | 25.27268 | 11232 ft | 313 kts | 177° |
| 2026-04-20 17:34 | 61.11068 | 25.27171 | 10978 ft | 311 kts | 177° |
| 2026-04-20 17:34 | 61.08926 | 25.27073 | 10719 ft | 305 kts | 177° |
| 2026-04-20 17:34 | 61.06816 | 25.26981 | 10463 ft | 304 kts | 177° |
| 2026-04-20 17:35 | 61.04713 | 25.26889 | 10329 ft | 303 kts | 177° |
| 2026-04-20 17:35 | 61.02611 | 25.26794 | 10324 ft | 304 kts | 177° |
| 2026-04-20 17:35 | 61.00502 | 25.26701 | 10325 ft | 304 kts | 177° |
| 2026-04-20 17:35 | 60.98401 | 25.26607 | 10336 ft | 304 kts | 177° |
| 2026-04-20 17:36 | 60.96309 | 25.26513 | 10328 ft | 298 kts | 177° |
| 2026-04-20 17:36 | 60.94261 | 25.26517 | 10333 ft | 292 kts | 174° |
| 2026-04-20 17:36 | 60.92243 | 25.26644 | 10331 ft | 291 kts | 173° |
| 2026-04-20 17:36 | 60.90229 | 25.26782 | 10325 ft | 291 kts | 173° |
| 2026-04-20 17:37 | 60.88213 | 25.26918 | 10330 ft | 291 kts | 173° |
| 2026-04-20 17:37 | 60.86194 | 25.27052 | 10337 ft | 291 kts | 174° |
| 2026-04-20 17:37 | 60.84174 | 25.27184 | 10336 ft | 291 kts | 174° |
| 2026-04-20 17:37 | 60.82162 | 25.27314 | 10330 ft | 291 kts | 174° |
| 2026-04-20 17:38 | 60.80133 | 25.27444 | 10319 ft | 290 kts | 174° |
| 2026-04-20 17:38 | 60.78140 | 25.27569 | 10047 ft | 287 kts | 173° |
| 2026-04-20 17:38 | 60.76152 | 25.27698 | 9631 ft | 288 kts | 174° |
| 2026-04-20 17:38 | 60.74167 | 25.27828 | 9267 ft | 287 kts | 174° |
| 2026-04-20 17:39 | 60.72192 | 25.27956 | 8905 ft | 285 kts | 174° |
| 2026-04-20 17:39 | 60.70228 | 25.28083 | 8541 ft | 284 kts | 174° |
| 2026-04-20 17:39 | 60.68276 | 25.28209 | 8168 ft | 282 kts | 174° |
| 2026-04-20 17:39 | 60.66318 | 25.28334 | 7815 ft | 280 kts | 174° |
| 2026-04-20 17:40 | 60.64387 | 25.28457 | 7461 ft | 279 kts | 174° |
| 2026-04-20 17:40 | 60.62467 | 25.28580 | 7096 ft | 277 kts | 175° |
| 2026-04-20 17:40 | 60.60555 | 25.28438 | 6710 ft | 279 kts | 191° |
| 2026-04-20 17:40 | 60.58825 | 25.26746 | 6334 ft | 280 kts | 220° |
| 2026-04-20 17:41 | 60.57482 | 25.23928 | 5986 ft | 278 kts | 229° |
| 2026-04-20 17:41 | 60.56224 | 25.20987 | 5616 ft | 277 kts | 230° |
| 2026-04-20 17:41 | 60.54962 | 25.18041 | 5343 ft | 273 kts | 230° |
| 2026-04-20 17:41 | 60.53702 | 25.15150 | 5319 ft | 275 kts | 229° |
| 2026-04-20 17:42 | 60.52430 | 25.12269 | 5328 ft | 276 kts | 229° |
| 2026-04-20 17:42 | 60.51150 | 25.09398 | 5295 ft | 276 kts | 229° |
| 2026-04-20 17:42 | 60.49865 | 25.06533 | 5302 ft | 276 kts | 228° |
| 2026-04-20 17:42 | 60.48558 | 25.03628 | 5270 ft | 284 kts | 228° |
| 2026-04-20 17:43 | 60.47216 | 25.00653 | 5161 ft | 286 kts | 228° |
| 2026-04-20 17:43 | 60.45888 | 24.97717 | 5001 ft | 282 kts | 228° |
| 2026-04-20 17:43 | 60.44569 | 24.94804 | 4608 ft | 282 kts | 229° |
| 2026-04-20 17:43 | 60.43251 | 24.91897 | 4203 ft | 282 kts | 229° |
| 2026-04-20 17:44 | 60.41941 | 24.89008 | 3956 ft | 279 kts | 229° |
| 2026-04-20 17:44 | 60.40626 | 24.86108 | 3827 ft | 277 kts | 229° |
| 2026-04-20 17:44 | 60.39344 | 24.83289 | 3548 ft | 266 kts | 229° |
| 2026-04-20 17:44 | 60.38130 | 24.80622 | 3260 ft | 251 kts | 229° |
| 2026-04-20 17:45 | 60.36966 | 24.78069 | 2851 ft | 245 kts | 229° |
| 2026-04-20 17:45 | 60.35828 | 24.75575 | 2427 ft | 242 kts | 229° |
| 2026-04-20 17:45 | 60.34691 | 24.73082 | 2316 ft | 243 kts | 229° |
| 2026-04-20 17:45 | 60.33547 | 24.70577 | 2315 ft | 245 kts | 229° |
| 2026-04-20 17:46 | 60.32397 | 24.68064 | 2321 ft | 245 kts | 229° |
| 2026-04-20 17:46 | 60.31247 | 24.65555 | 2321 ft | 245 kts | 229° |
| 2026-04-20 17:46 | 60.30093 | 24.63040 | 2328 ft | 245 kts | 229° |
| 2026-04-20 17:46 | 60.28936 | 24.60520 | 2337 ft | 244 kts | 229° |
| 2026-04-20 17:47 | 60.27759 | 24.58080 | 2321 ft | 245 kts | 219° |
| 2026-04-20 17:47 | 60.26216 | 24.56828 | 2297 ft | 235 kts | 177° |
| 2026-04-20 17:47 | 60.24778 | 24.57745 | 2298 ft | 207 kts | 135° |
| 2026-04-20 17:47 | 60.23839 | 24.59737 | 2322 ft | 191 kts | 123° |
| 2026-04-20 17:48 | 60.23015 | 24.61763 | 2314 ft | 187 kts | 124° |
| 2026-04-20 17:48 | 60.22153 | 24.63709 | 2332 ft | 187 kts | 127° |
| 2026-04-20 17:48 | 60.21240 | 24.65596 | 2394 ft | 187 kts | 126° |
| 2026-04-20 17:48 | 60.20693 | 24.67743 | 2308 ft | 161 kts | 84° |
| 2026-04-20 17:49 | 60.21115 | 24.69488 | 2283 ft | 131 kts | 40° |
| 2026-04-20 17:49 | 60.21818 | 24.70592 | 2306 ft | 127 kts | 36° |
| 2026-04-20 17:49 | 60.22505 | 24.71702 | 2337 ft | 128 kts | 39° |
| 2026-04-20 17:49 | 60.23163 | 24.72884 | 2326 ft | 127 kts | 40° |
| 2026-04-20 17:50 | 60.23818 | 24.74086 | 2330 ft | 127 kts | 41° |
| 2026-04-20 17:50 | 60.24454 | 24.75350 | 2233 ft | 128 kts | 44° |
| 2026-04-20 17:50 | 60.25062 | 24.76633 | 2056 ft | 127 kts | 44° |
| 2026-04-20 17:50 | 60.25655 | 24.77928 | 1870 ft | 126 kts | 45° |
| 2026-04-20 17:51 | 60.26243 | 24.79227 | 1702 ft | 126 kts | 45° |
| 2026-04-20 17:51 | 60.26835 | 24.80537 | 1532 ft | 126 kts | 45° |
| 2026-04-20 17:51 | 60.27420 | 24.81834 | 1362 ft | 125 kts | 45° |
| 2026-04-20 17:51 | 60.28003 | 24.83125 | 1195 ft | 125 kts | 45° |
| 2026-04-20 17:52 | 60.28590 | 24.84422 | 1027 ft | 125 kts | 45° |
| 2026-04-20 17:52 | 60.29172 | 24.85708 | 860 ft | 124 kts | 45° |
| 2026-04-20 17:52 | 60.29751 | 24.86985 | 689 ft | 124 kts | 45° |
| 2026-04-20 17:52 | 60.30326 | 24.88268 | 517 ft | 123 kts | 45° |
| 2026-04-20 17:53 | 60.30903 | 24.89531 | 369 ft | 123 kts | 44° |
| 2026-04-20 17:53 | 60.31479 | 24.90800 | 236 ft | 122 kts | 44° |
| 2026-04-20 17:53 | 60.31985 | 24.91897 | 222 ft | 85 kts | 46° |
| 2026-04-20 17:53 | 60.32273 | 24.92526 | 222 ft | 44 kts | 48° |
| 2026-04-20 17:54 | 60.32410 | 24.92899 | 222 ft | 27 kts | 69° |
| 2026-04-20 17:54 | 60.32455 | 24.93142 | 222 ft | 0 kts | 70° |
| 2026-04-20 17:54 | 60.32455 | 24.93146 | 222 ft | 0 kts | 70° |
| 2026-04-20 17:54 | 60.32457 | 24.93158 | 222 ft | 6 kts | 76° |
| 2026-04-20 17:55 | 60.32465 | 24.93271 | 222 ft | 9 kts | 80° |
| 2026-04-20 17:55 | 60.32477 | 24.93407 | 222 ft | 11 kts | 79° |
| 2026-04-20 17:55 | 60.32498 | 24.93578 | 222 ft | 14 kts | 76° |
| 2026-04-20 17:55 | 60.32521 | 24.93780 | 222 ft | 15 kts | 77° |
| 2026-04-20 17:56 | 60.32564 | 24.93981 | 222 ft | 16 kts | 50° |
| 2026-04-20 17:56 | 60.32642 | 24.94148 | 222 ft | 17 kts | 46° |
| 2026-04-20 17:56 | 60.32722 | 24.94321 | 222 ft | 17 kts | 47° |
| 2026-04-20 17:56 | 60.32805 | 24.94497 | 222 ft | 18 kts | 46° |
| 2026-04-20 17:57 | 60.32888 | 24.94681 | 222 ft | 18 kts | 49° |
| 2026-04-20 17:57 | 60.32916 | 24.94865 | 222 ft | 14 kts | 124° |
| 2026-04-20 17:57 | 60.32825 | 24.94962 | 222 ft | 16 kts | 162° |
| 2026-04-20 17:57 | 60.32718 | 24.95029 | 222 ft | 17 kts | 162° |
| 2026-04-20 17:58 | 60.32606 | 24.95101 | 222 ft | 17 kts | 162° |
| 2026-04-20 17:58 | 60.32490 | 24.95178 | 222 ft | 18 kts | 161° |
| 2026-04-20 17:58 | 60.32370 | 24.95258 | 222 ft | 19 kts | 161° |
| 2026-04-20 17:58 | 60.32296 | 24.95348 | 222 ft | 2 kts | 140° |
| 2026-04-20 17:59 | 60.32278 | 24.95379 | 222 ft | 4 kts | 140° |
| 2026-04-20 17:59 | 60.32250 | 24.95430 | 222 ft | 6 kts | 135° |
| 2026-04-20 17:59 | 60.32215 | 24.95501 | 222 ft | 8 kts | 135° |
| 2026-04-20 17:59 | 60.32170 | 24.95591 | 222 ft | 10 kts | 135° |
| 2026-04-20 18:00 | 60.32109 | 24.95699 | 222 ft | 17 kts | 142° |
| 2026-04-20 18:00 | 60.32019 | 24.95859 | 222 ft | 16 kts | 136° |
| 2026-04-20 18:00 | 60.31946 | 24.96000 | 222 ft | 13 kts | 136° |
| 2026-04-20 18:00 | 60.31889 | 24.96114 | 222 ft | 10 kts | 134° |
| 2026-04-20 18:01 | 60.31859 | 24.96217 | 221 ft | 9 kts | 99° |
| 2026-04-20 18:01 | 60.31832 | 24.96336 | 221 ft | 8 kts | 137° |
| 2026-04-20 18:01 | 60.31810 | 24.96373 | 221 ft | 3 kts | 139° |
| 2026-04-20 18:01 | 60.31804 | 24.96383 | 221 ft | 0 kts | 137° |